Observations for Trim Patrick St
| Time | AQI | Temp °C | Hum % | Pres Pa | CO μg/m³ | H₂S μg/m³ | NO μg/m³ | NO₂ μg/m³ | O₃ μg/m³ | SO₂ μg/m³ | PM1 μg/m³ | PM2.5 μg/m³ | PM10 μg/m³ |
|---|---|---|---|---|---|---|---|---|---|---|---|---|---|
| Tuesday 4 August 2026 | |||||||||||||
| 17:36 | 2 | 30.2 | 47 | 69,387 | 0 | 0 | 0.83 | 5.48 | 61.93 | 16.26 | 2.86 | 7.37 | 8.11 |
| 17:35 | 2 | 30.3 | 47 | 69,387 | 0 | 0 | 0.81 | 5.13 | 57.51 | 15.46 | 2 | 6.62 | 7.28 |
| 17:34 | 2 | 30.4 | 46 | 69,379 | 0 | 0 | 0.77 | 7.82 | 35.02 | 13.81 | 2 | 6.66 | 7.33 |
| 17:33 | 2 | 30.5 | 47 | 69,401 | 0 | 0 | 0.76 | 7.24 | 64.14 | 17.57 | 2 | 6.62 | 7.28 |
| 17:28 | 2 | 31 | 48 | 69,434 | 0 | 0 | 0.78 | 12.2 | 63.34 | 15.73 | 2.86 | 8.1 | 8.91 |
| 17:23 | 2 | 30.4 | 50 | 69,521 | 0 | 0 | 0.85 | 7.37 | 33.43 | 14.14 | 2 | 6.44 | 7.09 |
| 17:19 | 2 | 30 | 50 | 69,519 | 0 | 0 | 0.96 | 12.45 | 88.88 | 14.97 | 2 | 7.17 | 7.89 |
| 17:18 | 2 | 30 | 48 | 69,541 | 0 | 0 | 0.89 | 3.05 | 50.38 | 14.8 | 2.86 | 7.3 | 8.03 |
| 17:17 | 2 | 30 | 50 | 69,577 | 0 | 0 | 0.9 | 10.1 | 61.83 | 15.06 | 2 | 7.2 | 7.92 |
| 17:16 | 2 | 29.9 | 50 | 69,618 | 0 | 0 | 0.89 | 1.43 | 37.36 | 14.79 | 2.86 | 8.68 | 9.55 |
| 17:15 | 2 | 30 | 51 | 69,644 | 0 | 0 | 0.86 | 7.73 | 60.54 | 15.82 | 2.86 | 7.87 | 8.66 |
| 17:14 | 2 | 30.1 | 50 | 69,663 | 0 | 0 | 0.78 | 7.78 | 54.43 | 15.6 | 3.71 | 7.97 | 8.77 |
| 17:13 | 2 | 30.2 | 52 | 69,656 | 0 | 0 | 0.83 | 12.67 | 68.67 | 15.87 | 2 | 7.05 | 7.75 |
| 17:12 | 2 | 30.2 | 51 | 69,640 | 0 | 0 | 0.81 | 8.25 | 57.81 | 16.27 | 2 | 7.1 | 7.82 |
| 17:11 | 2 | 30.3 | 52 | 69,652 | 0 | 0 | 0.83 | 13.57 | 68.32 | 15.8 | 2.86 | 7.84 | 8.62 |
| 17:10 | 2 | 30.3 | 52 | 69,667 | 0 | 0 | 0.88 | 8.36 | 63.01 | 16.67 | 2 | 7.08 | 7.79 |
| 17:09 | 2 | 30.3 | 51 | 69,665 | 0 | 0 | 0.81 | 12.79 | 82.56 | 15.92 | 2 | 6.37 | 7.01 |
| 17:08 | 2 | 30.3 | 50 | 69,681 | 0 | 0 | 0.84 | 7.75 | 49.14 | 16.06 | 2.86 | 7.2 | 7.92 |
| 17:07 | 2 | 30.3 | 52 | 69,709 | 0 | 0 | 0.92 | 8.29 | 57.3 | 14.39 | 2 | 7.05 | 7.76 |
| 17:06 | 2 | 30.2 | 52 | 69,748 | 0 | 0 | 0.91 | 3.27 | 59.36 | 16.94 | 2.86 | 7.01 | 7.72 |